Time;durP1;ratioP1;P1;durP2;ratioP2;P2;SDS_P1;SDS_P2;PMS_P1;PMS_P2;Temp;Humidity;BMP_temperature;BMP_pressure;BME280_temperature;BME280_humidity;BME280_pressure;Samples;Min_cycle;Max_cycle;Signal;HPM_P1;HPM_P2
2023/05/05 00:01:15;;;;;;;21.88;17.65;;;20.80;1.00;;;;;;5032918;28;20038;-64
2023/05/05 00:03:41;;;;;;;21.35;17.80;;;20.70;1.00;;;;;;5032175;28;20033;-64
2023/05/05 00:06:07;;;;;;;21.42;18.02;;;20.70;1.00;;;;;;5032945;28;20030;-63
2023/05/05 00:08:33;;;;;;;21.08;18.95;;;20.70;1.00;;;;;;5031610;28;20036;-63
2023/05/05 00:10:58;;;;;;;21.20;18.15;;;20.60;1.00;;;;;;5024644;28;20491;-63
2023/05/05 00:13:24;;;;;;;25.65;19.10;;;20.60;1.00;;;;;;5030903;28;20044;-64
2023/05/05 00:15:52;;;;;;;23.70;19.40;;;20.60;1.00;;;;;;5032969;28;20057;-63
2023/05/05 00:18:18;;;;;;;22.25;18.17;;;20.70;1.00;;;;;;5032109;28;20021;-63
2023/05/05 00:20:47;;;;;;;21.48;19.27;;;20.60;1.00;;;;;;5032262;28;20056;-63
2023/05/05 00:23:14;;;;;;;25.85;20.20;;;20.60;1.00;;;;;;5030905;28;20026;-64
2023/05/05 00:25:40;;;;;;;22.83;20.20;;;20.60;1.00;;;;;;5032126;28;20460;-63
2023/05/05 00:28:06;;;;;;;21.40;19.10;;;20.50;1.00;;;;;;5031976;28;20037;-63
2023/05/05 00:30:33;;;;;;;22.52;20.23;;;20.50;1.00;;;;;;5032725;28;20029;-63
2023/05/05 00:32:58;;;;;;;22.00;19.52;;;20.50;1.00;;;;;;5031270;28;20025;-63
2023/05/05 00:35:25;;;;;;;21.70;19.40;;;20.40;1.00;;;;;;5032571;28;20030;-63
2023/05/05 00:37:51;;;;;;;21.45;19.25;;;20.40;1.00;;;;;;5030678;28;20399;-63
2023/05/05 00:40:17;;;;;;;21.15;18.95;;;20.30;1.00;;;;;;5032476;28;20049;-63
2023/05/05 00:42:45;;;;;;;21.80;19.55;;;20.30;1.00;;;;;;5030667;28;20475;-63
2023/05/05 00:45:12;;;;;;;23.08;20.75;;;20.30;1.00;;;;;;5030949;28;20030;-63
2023/05/05 00:47:40;;;;;;;24.63;20.65;;;20.30;1.00;;;;;;5018997;28;20018;-63
2023/05/05 00:50:08;;;;;;;23.30;20.77;;;20.20;1.00;;;;;;5032175;28;20060;-63
2023/05/05 00:52:36;;;;;;;22.98;20.42;;;20.20;1.00;;;;;;5032503;28;20029;-63
2023/05/05 00:55:03;;;;;;;24.02;21.45;;;20.20;1.00;;;;;;5031829;28;20052;-63
2023/05/05 00:57:29;;;;;;;22.38;19.90;;;20.20;1.00;;;;;;5022819;28;20663;-63
2023/05/05 00:59:55;;;;;;;23.85;21.45;;;20.20;1.00;;;;;;5032705;28;20063;-63
2023/05/05 01:02:21;;;;;;;22.45;20.20;;;20.20;1.00;;;;;;5030327;28;20025;-63
2023/05/05 01:04:47;;;;;;;24.23;20.65;;;20.20;1.00;;;;;;5030800;28;20033;-63
2023/05/05 01:07:27;;;;;;;23.92;20.73;;;20.10;1.00;;;;;;5031677;28;20017;-63
2023/05/05 01:10:05;;;;;;;23.10;20.63;;;20.10;1.00;;;;;;5032355;28;20464;-63
2023/05/05 01:12:49;;;;;;;24.33;21.85;;;20.10;1.00;;;;;;5031602;28;20034;-63
2023/05/05 01:15:33;;;;;;;23.23;20.15;;;20.10;1.00;;;;;;5032386;28;20025;-63
2023/05/05 01:18:23;;;;;;;24.90;22.33;;;20.10;1.00;;;;;;5031535;28;20494;-63
2023/05/05 01:21:13;;;;;;;24.40;21.80;;;20.00;1.00;;;;;;5032024;28;20076;-63
2023/05/05 01:23:54;;;;;;;22.73;20.42;;;20.00;1.00;;;;;;5031963;28;20052;-63
2023/05/05 01:26:53;;;;;;;24.02;21.63;;;20.00;1.00;;;;;;5035601;28;20033;-63
2023/05/05 01:29:37;;;;;;;24.85;22.25;;;19.90;1.00;;;;;;5030859;28;20109;-63
2023/05/05 01:32:15;;;;;;;23.70;21.30;;;19.90;1.00;;;;;;5046131;28;20430;-63
2023/05/05 01:34:52;;;;;;;24.60;21.85;;;20.00;1.00;;;;;;5032509;28;20038;-63
2023/05/05 01:37:26;;;;;;;26.58;22.10;;;19.90;1.00;;;;;;5027363;28;20021;-63
2023/05/05 01:39:56;;;;;;;26.27;22.90;;;19.90;1.00;;;;;;5048561;28;20041;-63
2023/05/05 01:42:24;;;;;;;26.52;22.52;;;19.90;1.00;;;;;;5035119;28;20048;-63
2023/05/05 01:44:53;;;;;;;23.95;21.65;;;19.90;1.00;;;;;;5035740;28;20115;-63
2023/05/05 01:47:21;;;;;;;24.58;21.48;;;19.80;1.00;;;;;;5040784;28;20021;-63
2023/05/05 01:49:48;;;;;;;26.45;22.10;;;19.90;1.00;;;;;;5035365;28;20091;-63
2023/05/05 01:52:15;;;;;;;23.80;21.38;;;19.80;1.00;;;;;;5035125;28;20374;-63
2023/05/05 01:54:43;;;;;;;25.45;22.50;;;19.70;1.00;;;;;;5034173;28;20049;-63
2023/05/05 01:57:10;;;;;;;25.70;22.98;;;19.80;1.00;;;;;;5033491;28;20534;-63
2023/05/05 01:59:38;;;;;;;25.00;22.38;;;19.80;1.00;;;;;;5035327;28;20054;-63
2023/05/05 02:02:06;;;;;;;25.15;22.40;;;19.70;1.00;;;;;;5034538;28;20072;-63
2023/05/05 02:04:33;;;;;;;25.70;22.85;;;19.60;1.00;;;;;;5044250;28;20566;-63
2023/05/05 02:07:01;;;;;;;24.45;22.00;;;19.60;1.00;;;;;;5038801;28;20352;-63
2023/05/05 02:09:28;;;;;;;24.45;21.92;;;19.60;1.00;;;;;;5034471;28;20051;-63
2023/05/05 02:11:57;;;;;;;24.05;21.60;;;19.70;1.00;;;;;;5035099;28;20036;-63
2023/05/05 02:14:25;;;;;;;24.08;21.55;;;19.70;1.00;;;;;;5032962;28;20029;-63
2023/05/05 02:16:52;;;;;;;25.40;22.80;;;19.60;1.00;;;;;;5035093;28;20112;-63
2023/05/05 02:19:21;;;;;;;25.90;22.73;;;19.50;1.00;;;;;;5034089;28;20041;-63
2023/05/05 02:21:46;;;;;;;25.17;21.52;;;19.50;1.00;;;;;;5035056;28;20029;-63
2023/05/05 02:24:12;;;;;;;27.13;21.80;;;19.60;1.00;;;;;;5034308;28;20021;-63
2023/05/05 02:26:39;;;;;;;25.63;22.92;;;19.60;1.00;;;;;;5035734;28;20026;-63
2023/05/05 02:29:09;;;;;;;27.27;23.25;;;19.50;1.00;;;;;;5033938;28;20021;-63
2023/05/05 02:31:41;;;;;;;24.42;21.85;;;19.50;1.00;;;;;;5034078;28;20026;-63
2023/05/05 02:34:08;;;;;;;24.48;21.70;;;19.40;1.00;;;;;;5028853;28;20025;-63
2023/05/05 02:36:38;;;;;;;25.35;22.67;;;19.50;1.00;;;;;;5032193;28;20040;-63
2023/05/05 02:39:13;;;;;;;27.17;22.67;;;19.40;1.00;;;;;;5047494;28;20673;-63
2023/05/05 02:41:41;;;;;;;25.48;22.80;;;19.40;1.00;;;;;;5046089;28;20034;-63
2023/05/05 02:44:09;;;;;;;24.00;21.55;;;19.30;1.00;;;;;;5034147;28;20025;-63
2023/05/05 02:46:37;;;;;;;24.52;22.02;;;19.30;1.00;;;;;;5033801;28;20047;-63
2023/05/05 02:49:03;;;;;;;24.60;22.00;;;19.30;1.00;;;;;;5034567;28;20460;-63
2023/05/05 02:51:28;;;;;;;26.52;23.10;;;19.40;1.00;;;;;;5033559;28;20040;-63
2023/05/05 02:53:54;;;;;;;24.60;20.90;;;19.40;1.00;;;;;;5038246;28;20037;-63
2023/05/05 02:56:31;;;;;;;25.55;22.88;;;19.30;1.00;;;;;;5031477;28;20032;-63
2023/05/05 02:59:13;;;;;;;26.08;21.85;;;19.20;1.00;;;;;;5033823;28;20370;-63
2023/05/05 03:02:07;;;;;;;23.75;21.45;;;19.20;1.00;;;;;;5033286;28;20049;-63
2023/05/05 03:04:40;;;;;;;24.67;21.77;;;19.20;1.00;;;;;;5033504;28;20227;-63
2023/05/05 03:07:12;;;;;;;25.02;22.50;;;19.20;1.00;;;;;;5021130;28;20013;-63
2023/05/05 03:09:49;;;;;;;24.58;22.17;;;19.20;1.00;;;;;;5033729;28;20069;-63
2023/05/05 03:12:21;;;;;;;24.77;22.17;;;19.20;1.00;;;;;;5027043;28;20057;-63
2023/05/05 03:14:50;;;;;;;24.65;22.17;;;19.20;1.00;;;;;;5034240;28;20458;-63
2023/05/05 03:17:18;;;;;;;24.73;22.33;;;19.20;1.00;;;;;;5033163;28;20022;-63
2023/05/05 03:19:45;;;;;;;27.58;23.50;;;19.20;1.00;;;;;;5033846;28;20048;-63
2023/05/05 03:22:11;;;;;;;23.45;21.17;;;19.10;1.00;;;;;;5032936;28;20022;-63
2023/05/05 03:24:37;;;;;;;23.98;21.38;;;19.00;1.00;;;;;;5033873;28;20033;-63
2023/05/05 03:27:03;;;;;;;24.70;22.10;;;19.10;1.00;;;;;;5033101;28;20026;-63
2023/05/05 03:29:29;;;;;;;24.30;21.70;;;19.00;1.00;;;;;;5031937;28;20037;-63
2023/05/05 03:31:55;;;;;;;25.77;23.05;;;19.00;1.00;;;;;;5033744;28;20029;-63
2023/05/05 03:34:20;;;;;;;23.73;20.95;;;19.00;1.00;;;;;;5033006;28;20026;-63
2023/05/05 03:36:46;;;;;;;24.55;21.92;;;19.00;1.00;;;;;;5032380;28;20041;-63
2023/05/05 03:39:11;;;;;;;26.80;21.73;;;18.90;1.00;;;;;;5031635;28;20578;-63
2023/05/05 03:41:37;;;;;;;23.92;21.50;;;18.90;1.00;;;;;;5032931;28;20087;-63
2023/05/05 03:44:03;;;;;;;23.83;21.33;;;18.80;1.00;;;;;;5031865;28;20109;-63
2023/05/05 03:46:29;;;;;;;25.05;22.35;;;18.90;1.00;;;;;;5032227;28;20095;-63
2023/05/05 03:48:57;;;;;;;24.70;22.10;;;18.90;1.00;;;;;;5032943;28;20030;-63
2023/05/05 03:51:23;;;;;;;23.15;20.77;;;18.90;1.00;;;;;;5033607;28;20036;-63
2023/05/05 03:53:49;;;;;;;23.45;20.77;;;18.90;1.00;;;;;;5032650;28;20029;-63
2023/05/05 03:56:15;;;;;;;23.05;20.65;;;18.80;1.00;;;;;;5032056;28;20471;-63
2023/05/05 03:58:40;;;;;;;24.23;21.73;;;18.90;1.00;;;;;;5031204;28;20033;-63
2023/05/05 04:01:07;;;;;;;25.05;21.95;;;18.90;1.00;;;;;;5031761;28;20071;-63
2023/05/05 04:03:32;;;;;;;24.77;22.17;;;18.90;1.00;;;;;;5032276;28;20028;-63
2023/05/05 04:05:58;;;;;;;23.95;21.52;;;18.90;1.00;;;;;;5033199;28;20038;-63
2023/05/05 04:08:24;;;;;;;23.83;21.15;;;18.90;1.00;;;;;;5031245;28;20037;-63
2023/05/05 04:10:50;;;;;;;23.42;20.95;;;18.80;1.00;;;;;;5032406;28;20053;-63
2023/05/05 04:13:15;;;;;;;25.58;21.45;;;18.80;1.00;;;;;;5031206;28;20025;-63
2023/05/05 04:15:47;;;;;;;23.35;20.98;;;18.80;1.00;;;;;;5033014;28;20034;-63
2023/05/05 04:18:12;;;;;;;25.48;21.40;;;18.70;1.00;;;;;;5031947;28;20040;-63
2023/05/05 04:20:38;;;;;;;23.25;20.95;;;18.70;1.00;;;;;;5033176;28;20041;-64
2023/05/05 04:23:04;;;;;;;23.30;20.83;;;18.80;1.00;;;;;;5031298;28;20034;-63
2023/05/05 04:25:29;;;;;;;29.00;20.98;;;18.70;1.00;;;;;;5033212;28;20033;-63
2023/05/05 04:27:55;;;;;;;23.35;21.02;;;18.80;1.00;;;;;;5031136;28;20013;-63
2023/05/05 04:30:20;;;;;;;22.17;19.88;;;18.80;1.00;;;;;;5032809;28;20029;-63
2023/05/05 04:32:46;;;;;;;22.67;20.35;;;18.70;1.00;;;;;;5032360;28;20022;-63
2023/05/05 04:35:12;;;;;;;23.20;20.80;;;18.70;1.00;;;;;;5032687;28;20087;-63
2023/05/05 04:37:37;;;;;;;23.10;20.77;;;18.80;1.00;;;;;;5032473;28;20029;-63
2023/05/05 04:40:03;;;;;;;23.23;20.08;;;18.80;1.00;;;;;;5032621;28;20136;-63
2023/05/05 04:42:29;;;;;;;23.33;20.13;;;18.80;1.00;;;;;;5032020;28;20021;-63
2023/05/05 04:44:55;;;;;;;21.98;19.65;;;18.80;1.00;;;;;;5022759;28;20088;-63
2023/05/05 04:47:21;;;;;;;21.35;19.15;;;18.80;1.00;;;;;;5029828;28;20033;-63
2023/05/05 04:49:46;;;;;;;22.67;19.95;;;18.80;1.00;;;;;;5032720;28;20025;-63
2023/05/05 04:52:13;;;;;;;21.35;19.25;;;18.80;1.00;;;;;;5031279;28;20028;-63
2023/05/05 04:54:38;;;;;;;21.17;18.25;;;18.80;1.00;;;;;;5032579;28;20029;-63
2023/05/05 04:57:04;;;;;;;23.70;19.23;;;18.80;1.00;;;;;;5031793;28;20475;-63
2023/05/05 04:59:30;;;;;;;22.90;20.52;;;18.80;1.00;;;;;;5033561;28;20091;-63
2023/05/05 05:01:56;;;;;;;23.23;19.67;;;18.90;1.00;;;;;;5036503;28;20045;-63
2023/05/05 05:04:21;;;;;;;23.15;19.60;;;19.00;1.00;;;;;;5035613;28;20107;-63
2023/05/05 05:06:47;;;;;;;21.90;18.88;;;19.00;1.00;;;;;;5036870;28;20021;-63
2023/05/05 05:09:13;;;;;;;23.13;20.15;;;19.00;1.00;;;;;;5034997;28;20033;-63
2023/05/05 05:11:38;;;;;;;22.30;19.95;;;19.10;1.00;;;;;;5035415;28;20017;-63
2023/05/05 05:14:04;;;;;;;21.98;18.73;;;19.10;1.00;;;;;;5036164;28;20037;-63
2023/05/05 05:16:29;;;;;;;22.23;19.70;;;19.10;1.00;;;;;;5034571;28;20026;-63
2023/05/05 05:18:55;;;;;;;22.98;20.38;;;19.20;1.00;;;;;;5036346;28;20080;-63
2023/05/05 05:21:21;;;;;;;21.63;19.33;;;19.20;1.00;;;;;;5034180;28;20033;-63
2023/05/05 05:23:46;;;;;;;24.33;19.95;;;19.30;1.00;;;;;;5036114;28;20064;-63
2023/05/05 05:26:12;;;;;;;21.60;19.30;;;19.30;1.00;;;;;;5035580;28;20031;-63
2023/05/05 05:28:38;;;;;;;21.90;18.42;;;19.30;1.00;;;;;;5034987;28;20026;-63
2023/05/05 05:31:03;;;;;;;22.75;19.33;;;19.30;1.00;;;;;;5036128;28;20060;-63
2023/05/05 05:33:29;;;;;;;21.58;19.48;;;19.40;1.00;;;;;;5035128;28;20029;-63
2023/05/05 05:35:55;;;;;;;23.05;18.90;;;19.40;1.00;;;;;;5036223;28;20179;-63
2023/05/05 05:38:20;;;;;;;21.75;18.55;;;19.30;1.00;;;;;;5034549;28;20107;-63
2023/05/05 05:40:46;;;;;;;22.98;18.75;;;19.40;1.00;;;;;;5021811;28;20026;-63
2023/05/05 05:43:12;;;;;;;22.48;19.75;;;19.40;1.00;;;;;;5027515;28;20022;-64
2023/05/05 05:45:37;;;;;;;20.88;18.77;;;19.50;1.00;;;;;;5034819;28;20034;-63
2023/05/05 05:48:03;;;;;;;23.42;18.88;;;19.50;1.00;;;;;;5035059;28;20468;-64
2023/05/05 05:50:29;;;;;;;20.58;18.27;;;19.60;1.00;;;;;;5050371;28;20487;-64
2023/05/05 05:52:54;;;;;;;20.50;18.30;;;19.70;1.00;;;;;;5035015;28;20104;-63
2023/05/05 05:55:20;;;;;;;21.98;18.10;;;19.70;1.00;;;;;;5035751;28;20021;-64
2023/05/05 05:57:46;;;;;;;19.85;17.75;;;19.80;1.00;;;;;;5034802;28;20096;-64
2023/05/05 06:00:13;;;;;;;21.33;19.05;;;19.80;1.00;;;;;;5035517;28;20059;-64
2023/05/05 06:02:38;;;;;;;21.42;18.63;;;19.90;1.00;;;;;;5034402;28;20029;-64
2023/05/05 06:05:04;;;;;;;24.10;21.20;;;20.00;1.00;;;;;;5035570;28;20021;-64
2023/05/05 06:07:30;;;;;;;31.58;27.63;;;20.00;1.00;;;;;;5033770;28;20022;-64
2023/05/05 06:09:56;;;;;;;30.00;26.85;;;20.00;1.00;;;;;;5035179;28;20022;-63
2023/05/05 06:12:21;;;;;;;28.77;24.63;;;20.00;1.00;;;;;;5034047;28;20026;-63
2023/05/05 06:14:47;;;;;;;27.92;24.92;;;19.90;1.00;;;;;;5034662;28;20072;-63
2023/05/05 06:17:12;;;;;;;29.55;24.70;;;19.90;1.00;;;;;;5033603;28;20379;-63
2023/05/05 06:19:39;;;;;;;25.75;22.88;;;20.00;1.00;;;;;;5034335;28;20041;-63
2023/05/05 06:22:05;;;;;;;23.58;20.38;;;20.00;1.00;;;;;;5019661;28;20096;-63
2023/05/05 06:24:31;;;;;;;21.83;19.33;;;20.00;1.00;;;;;;5033602;28;20033;-63
2023/05/05 06:26:58;;;;;;;20.48;18.38;;;20.00;1.00;;;;;;5034169;28;20033;-63
2023/05/05 06:29:24;;;;;;;21.63;19.42;;;20.00;1.00;;;;;;5035101;28;20037;-63
2023/05/05 06:31:50;;;;;;;24.08;19.98;;;19.90;1.00;;;;;;5033982;28;20108;-63
2023/05/05 06:34:17;;;;;;;20.92;18.50;;;20.00;1.00;;;;;;5034854;28;20064;-63
2023/05/05 06:36:42;;;;;;;22.13;18.08;;;20.00;1.00;;;;;;5032967;28;20507;-63
2023/05/05 06:39:08;;;;;;;20.05;17.85;;;20.10;1.00;;;;;;5032481;28;20128;-63
2023/05/05 06:41:34;;;;;;;20.25;17.70;;;20.00;1.00;;;;;;5034693;28;20043;-63
2023/05/05 06:43:59;;;;;;;19.90;17.80;;;20.10;1.00;;;;;;5034085;28;20045;-63
2023/05/05 06:46:25;;;;;;;24.00;18.80;;;20.20;1.00;;;;;;5034502;28;20476;-63
2023/05/05 06:48:51;;;;;;;24.13;17.95;;;20.10;1.00;;;;;;5033669;28;20021;-63
2023/05/05 06:51:17;;;;;;;20.42;18.33;;;20.10;1.00;;;;;;5034433;28;20033;-63
2023/05/05 06:53:43;;;;;;;20.73;17.40;;;20.20;1.00;;;;;;5032567;28;20538;-63
2023/05/05 06:56:08;;;;;;;22.17;19.80;;;20.20;1.00;;;;;;5033066;28;20442;-63
2023/05/05 06:58:34;;;;;;;23.00;18.25;;;20.20;1.00;;;;;;5033774;28;20075;-63
2023/05/05 07:01:00;;;;;;;21.52;17.75;;;20.20;1.00;;;;;;5032767;28;20045;-63
2023/05/05 07:03:26;;;;;;;20.33;18.00;;;20.30;1.00;;;;;;5033231;28;20471;-63
2023/05/05 07:05:53;;;;;;;20.38;18.23;;;20.30;1.00;;;;;;5029265;28;20034;-63
2023/05/05 07:08:19;;;;;;;59.05;22.42;;;20.40;1.00;;;;;;5030268;28;20391;-63
2023/05/05 07:10:46;;;;;;;88.22;28.65;;;20.40;1.00;;;;;;5033061;28;20033;-64
2023/05/05 07:13:12;;;;;;;91.75;28.77;;;20.40;1.00;;;;;;5032462;28;20032;-63
2023/05/05 07:15:45;;;;;;;50.72;22.85;;;20.40;1.00;;;;;;5033069;28;20041;-63
2023/05/05 07:18:16;;;;;;;56.42;22.88;;;20.40;1.00;;;;;;5032456;28;20424;-63
2023/05/05 07:20:43;;;;;;;106.35;32.15;;;20.40;1.00;;;;;;5032251;28;20045;-63
2023/05/05 07:23:10;;;;;;;76.30;25.17;;;20.40;1.00;;;;;;5025552;28;20021;-65
2023/05/05 07:25:35;;;;;;;37.63;21.15;;;20.40;1.00;;;;;;5033691;28;20030;-64
2023/05/05 07:28:02;;;;;;;138.60;40.60;;;20.40;1.00;;;;;;5032869;28;20498;-64
2023/05/05 07:30:27;;;;;;;104.50;29.70;;;20.40;1.00;;;;;;5033590;28;20044;-64
2023/05/05 07:32:53;;;;;;;53.60;22.15;;;20.50;1.00;;;;;;5030572;28;20025;-64
2023/05/05 07:35:19;;;;;;;36.28;20.17;;;20.50;1.00;;;;;;5032164;28;20029;-64
2023/05/05 07:37:45;;;;;;;28.20;19.25;;;20.50;1.00;;;;;;5062318;28;20028;-64
2023/05/05 07:40:11;;;;;;;31.80;19.58;;;20.50;1.00;;;;;;5030516;28;20063;-64
2023/05/05 07:42:37;;;;;;;23.15;17.85;;;20.50;1.00;;;;;;5032017;28;20451;-64
2023/05/05 07:45:03;;;;;;;23.30;18.20;;;20.60;1.00;;;;;;5033221;28;20064;-64
2023/05/05 07:47:29;;;;;;;19.65;16.48;;;20.60;1.00;;;;;;5031747;28;20041;-64
2023/05/05 07:49:54;;;;;;;34.75;18.40;;;20.60;1.00;;;;;;5031393;28;20042;-64
2023/05/05 07:52:20;;;;;;;54.20;20.95;;;20.60;1.00;;;;;;5032430;28;20033;-64
2023/05/05 07:54:47;;;;;;;19.08;14.40;;;20.70;1.00;;;;;;5033145;28;20067;-64
2023/05/05 07:57:13;;;;;;;18.88;15.00;;;20.70;1.00;;;;;;5031638;28;20022;-64
2023/05/05 07:59:42;;;;;;;19.33;17.25;;;20.70;1.00;;;;;;5032267;28;20510;-64
2023/05/05 08:02:11;;;;;;;62.35;23.38;;;20.70;1.00;;;;;;5031248;28;20476;-64
2023/05/05 08:04:41;;;;;;;73.63;21.40;;;20.80;1.00;;;;;;5032887;28;20079;-64
2023/05/05 08:07:08;;;;;;;17.98;16.13;;;20.80;1.00;;;;;;5032518;28;20029;-64
2023/05/05 08:09:34;;;;;;;15.82;13.90;;;20.80;1.00;;;;;;5031793;28;20033;-64
2023/05/05 08:12:03;;;;;;;21.55;15.35;;;20.80;1.00;;;;;;5032122;28;20080;-64
2023/05/05 08:14:30;;;;;;;14.93;13.43;;;20.80;1.00;;;;;;5033078;28;20021;-64
2023/05/05 08:16:55;;;;;;;51.83;19.65;;;20.90;1.00;;;;;;5032398;28;20032;-64
2023/05/05 08:19:22;;;;;;;23.98;15.45;;;20.90;1.00;;;;;;5031896;28;20384;-64
2023/05/05 08:21:48;;;;;;;22.35;16.23;;;20.90;1.00;;;;;;5031055;28;20033;-64
2023/05/05 08:24:13;;;;;;;31.13;17.20;;;21.00;1.00;;;;;;5031950;28;20030;-64
2023/05/05 08:26:39;;;;;;;39.55;17.35;;;21.00;1.00;;;;;;5032886;28;20034;-64
2023/05/05 08:29:05;;;;;;;30.33;16.15;;;21.10;1.00;;;;;;5031662;28;20459;-64
2023/05/05 08:31:38;;;;;;;18.45;16.40;;;21.10;1.00;;;;;;5031497;28;20024;-64
2023/05/05 08:34:05;;;;;;;28.05;16.85;;;21.20;1.00;;;;;;5029257;28;20083;-64
2023/05/05 08:36:31;;;;;;;19.08;14.20;;;21.20;1.00;;;;;;5032524;28;20029;-64
2023/05/05 08:38:57;;;;;;;15.90;12.65;;;21.30;1.00;;;;;;5031861;28;20068;-64
2023/05/05 08:41:22;;;;;;;12.13;10.95;;;21.30;1.00;;;;;;5030405;28;20514;-64
2023/05/05 08:43:49;;;;;;;14.50;13.10;;;21.40;1.00;;;;;;5033552;28;20025;-64
2023/05/05 08:46:15;;;;;;;13.57;11.57;;;21.40;1.00;;;;;;5032079;28;20575;-64
2023/05/05 08:48:43;;;;;;;13.25;12.02;;;21.40;1.00;;;;;;5032963;28;20032;-64
2023/05/05 08:51:12;;;;;;;14.68;13.20;;;21.50;1.00;;;;;;5064621;28;20029;-64
2023/05/05 08:53:52;;;;;;;13.32;12.10;;;21.50;1.00;;;;;;5027637;28;20032;-64
2023/05/05 08:56:23;;;;;;;13.85;11.00;;;21.50;1.00;;;;;;5033279;28;20036;-64
2023/05/05 08:58:50;;;;;;;13.15;11.85;;;21.50;1.00;;;;;;5033235;28;20380;-63
2023/05/05 09:01:16;;;;;;;13.13;11.88;;;21.60;1.00;;;;;;5032013;28;20078;-63
2023/05/05 09:03:43;;;;;;;14.70;10.57;;;21.60;1.00;;;;;;5032256;28;20036;-63
2023/05/05 09:06:09;;;;;;;12.27;10.98;;;21.70;1.00;;;;;;5030538;28;20378;-64
2023/05/05 09:08:39;;;;;;;14.32;12.27;;;21.70;1.00;;;;;;5031094;28;20029;-64
2023/05/05 09:11:05;;;;;;;12.25;11.05;;;21.80;1.00;;;;;;5031167;28;20037;-64
2023/05/05 09:13:31;;;;;;;12.98;11.75;;;21.80;1.00;;;;;;5031774;28;20386;-63
2023/05/05 09:15:58;;;;;;;13.20;11.90;;;21.80;1.00;;;;;;5031345;28;20490;-63
2023/05/05 09:18:24;;;;;;;14.02;12.63;;;21.80;1.00;;;;;;5031859;28;20025;-63
2023/05/05 09:20:49;;;;;;;14.75;13.32;;;21.90;1.00;;;;;;5032613;28;20438;-64
2023/05/05 09:23:17;;;;;;;13.90;12.50;;;21.90;1.00;;;;;;5032456;28;20029;-63
2023/05/05 09:26:00;;;;;;;18.60;14.88;;;22.00;1.00;;;;;;5031269;28;20430;-64
2023/05/05 09:28:26;;;;;;;15.80;14.20;;;22.00;1.00;;;;;;5029389;28;20548;-63
2023/05/05 09:30:52;;;;;;;15.77;14.27;;;22.00;1.00;;;;;;5027043;28;20033;-64
2023/05/05 09:33:29;;;;;;;16.33;13.60;;;22.00;1.00;;;;;;5032742;28;20422;-64
2023/05/05 09:35:55;;;;;;;18.35;15.10;;;22.10;1.00;;;;;;5031030;28;20120;-63
2023/05/05 09:38:23;;;;;;;16.65;14.43;;;22.10;1.00;;;;;;5030127;28;20109;-64
2023/05/05 09:40:51;;;;;;;15.73;13.45;;;22.20;1.00;;;;;;5029199;28;20033;-63
2023/05/05 09:43:21;;;;;;;16.83;13.60;;;22.20;1.00;;;;;;5030763;28;20041;-64
2023/05/05 09:45:48;;;;;;;15.45;11.93;;;22.20;1.00;;;;;;5031206;28;20594;-63
2023/05/05 09:48:27;;;;;;;15.70;14.05;;;22.30;1.00;;;;;;5030854;28;20399;-63
2023/05/05 09:50:53;;;;;;;18.10;15.40;;;22.30;1.00;;;;;;5030760;28;20510;-63
2023/05/05 09:53:19;;;;;;;16.00;13.60;;;22.40;1.00;;;;;;5030984;28;20026;-63
2023/05/05 09:55:55;;;;;;;17.15;13.93;;;22.40;1.00;;;;;;5032020;28;20494;-63
2023/05/05 09:58:29;;;;;;;15.80;14.30;;;22.50;1.00;;;;;;5031738;28;20038;-63
2023/05/05 10:00:55;;;;;;;;;;;22.60;1.00;;;;;;5029496;28;20048;-63
2023/05/05 10:03:22;;;;;;;15.38;13.35;;;22.50;1.00;;;;;;5031247;28;19909;-63
2023/05/05 10:05:55;;;;;;;14.55;13.07;;;22.60;1.00;;;;;;5033840;28;20391;-63
2023/05/05 10:08:25;;;;;;;14.15;12.75;;;22.70;1.00;;;;;;5033591;28;20100;-63
2023/05/05 10:10:52;;;;;;;13.27;11.90;;;22.80;1.00;;;;;;5035227;28;20061;-64
2023/05/05 10:13:21;;;;;;;16.23;14.77;;;22.90;1.00;;;;;;5034080;28;20598;-63
2023/05/05 10:15:49;;;;;;;18.48;16.55;;;23.00;1.00;;;;;;5035104;28;20034;-63
2023/05/05 10:18:20;;;;;;;16.23;14.52;;;23.00;1.00;;;;;;5034380;28;20061;-64
2023/05/05 10:20:57;;;;;;;14.23;12.70;;;23.10;1.00;;;;;;5027326;28;20048;-63
2023/05/05 10:23:25;;;;;;;13.73;12.38;;;23.10;1.00;;;;;;5033915;28;20314;-63
2023/05/05 10:26:01;;;;;;;13.88;12.57;;;23.20;1.00;;;;;;5033617;28;20037;-63
2023/05/05 10:28:43;;;;;;;13.48;12.15;;;23.30;1.00;;;;;;5033070;28;20033;-63
2023/05/05 10:31:16;;;;;;;14.00;12.73;;;23.50;1.00;;;;;;5034949;28;20028;-63
2023/05/05 10:33:54;;;;;;;13.95;12.55;;;23.60;1.00;;;;;;5034386;28;20129;-63
2023/05/05 10:36:20;;;;;;;14.73;12.85;;;23.60;1.00;;;;;;5034727;28;20026;-64
2023/05/05 10:38:47;;;;;;;15.75;14.15;;;23.80;1.00;;;;;;5033739;28;20045;-63
2023/05/05 10:41:13;;;;;;;14.27;12.88;;;23.80;1.00;;;;;;5033386;28;20033;-64
2023/05/05 10:43:39;;;;;;;13.20;11.82;;;23.90;1.00;;;;;;5033417;28;20426;-64
2023/05/05 10:46:05;;;;;;;14.30;12.90;;;24.00;1.00;;;;;;5031937;28;20030;-64
2023/05/05 10:48:45;;;;;;;13.93;12.38;;;24.10;1.00;;;;;;5033771;28;20053;-65
2023/05/05 10:51:26;;;;;;;13.13;11.27;;;24.10;1.00;;;;;;5031699;28;20022;-64
2023/05/05 10:54:07;;;;;;;16.42;14.85;;;24.30;1.00;;;;;;5027591;28;20030;-64
2023/05/05 10:56:34;;;;;;;17.05;15.30;;;24.40;1.00;;;;;;5032480;28;20386;-64
2023/05/05 10:59:00;;;;;;;16.90;14.90;;;24.50;1.00;;;;;;5031600;28;20029;-64
2023/05/05 11:01:34;;;;;;;13.60;12.25;;;24.60;1.00;;;;;;5043998;28;20475;-64
2023/05/05 11:04:22;;;;;;;14.32;12.93;;;24.60;1.00;;;;;;5032745;28;20112;-64
2023/05/05 11:07:09;;;;;;;14.30;13.00;;;24.80;1.00;;;;;;5031778;28;20035;-64
2023/05/05 11:09:52;;;;;;;16.98;15.30;;;24.90;1.00;;;;;;5032875;28;20617;-64
2023/05/05 11:12:18;;;;;;;15.13;13.52;;;25.00;1.00;;;;;;5033621;28;20025;-64
2023/05/05 11:14:43;;;;;;;17.30;15.43;;;25.20;1.00;;;;;;5034267;28;20033;-64
2023/05/05 11:17:45;;;;;;;14.95;13.55;;;25.40;1.00;;;;;;5032481;28;20039;-64
2023/05/05 11:20:10;;;;;;;15.45;13.68;;;25.60;1.00;;;;;;5030182;28;20041;-64
2023/05/05 11:23:01;;;;;;;17.75;15.85;;;25.70;1.00;;;;;;5033030;28;20055;-64
2023/05/05 11:25:36;;;;;;;15.68;14.27;;;25.90;1.00;;;;;;5029042;28;20428;-64
2023/05/05 11:28:29;;;;;;;13.82;12.63;;;26.00;1.00;;;;;;5021042;28;20025;-64
2023/05/05 11:30:55;;;;;;;14.50;12.75;;;26.20;1.00;;;;;;5033674;28;20048;-64
2023/05/05 11:33:25;;;;;;;14.60;13.07;;;26.30;1.00;;;;;;5031890;28;20017;-65
2023/05/05 11:35:54;;;;;;;15.70;14.20;;;26.40;1.00;;;;;;5033800;28;20017;-64
2023/05/05 11:38:40;;;;;;;14.07;12.68;;;26.70;1.00;;;;;;5031128;28;20041;-64
2023/05/05 11:41:12;;;;;;;15.50;13.90;;;26.90;1.00;;;;;;5033669;28;20045;-64
2023/05/05 11:43:40;;;;;;;14.15;12.93;;;27.10;1.00;;;;;;5032669;28;20017;-65
2023/05/05 11:46:13;;;;;;;15.82;14.32;;;27.50;1.00;;;;;;5033508;28;20357;-65
2023/05/05 11:48:47;;;;;;;33.63;14.93;;;28.20;1.00;;;;;;5032829;28;20075;-65
2023/05/05 11:51:13;;;;;;;47.53;19.38;;;29.40;1.00;;;;;;5032066;28;20493;-65
2023/05/05 11:53:44;;;;;;;15.43;13.85;;;31.40;99.90;;;;;;5030923;28;20113;-65
2023/05/05 11:56:11;;;;;;;15.13;13.73;;;32.40;99.90;;;;;;5029886;28;20423;-65
2023/05/05 11:58:37;;;;;;;14.38;13.07;;;33.30;99.90;;;;;;5032751;28;20052;-65
2023/05/05 12:01:07;;;;;;;15.68;14.38;;;35.50;99.90;;;;;;5032789;28;20071;-65
2023/05/05 12:03:36;;;;;;;14.20;12.88;;;37.20;99.90;;;;;;5028663;28;20112;-65
2023/05/05 12:06:03;;;;;;;13.23;12.07;;;37.10;99.90;;;;;;5031966;28;20075;-65
2023/05/05 12:08:35;;;;;;;12.85;11.75;;;36.60;99.90;;;;;;5045668;28;20443;-65
2023/05/05 12:11:08;;;;;;;16.90;15.40;;;36.40;99.90;;;;;;5033145;28;20107;-65
2023/05/05 12:13:34;;;;;;;15.05;13.85;;;37.10;99.90;;;;;;5030588;28;20022;-65
2023/05/05 12:16:13;;;;;;;16.42;14.75;;;38.90;99.90;;;;;;5037484;28;20344;-65
2023/05/05 12:18:40;;;;;;;14.95;12.27;;;40.60;99.90;;;;;;5039078;28;20511;-65
2023/05/05 12:21:19;;;;;;;15.10;13.80;;;41.30;99.90;;;;;;5032768;28;20048;-65
2023/05/05 12:23:45;;;;;;;13.18;11.95;;;41.40;99.90;;;;;;5032239;28;20021;-65
2023/05/05 12:26:27;;;;;;;15.05;13.73;;;41.40;99.90;;;;;;5021468;28;20036;-65
2023/05/05 12:28:54;;;;;;;15.75;13.98;;;40.60;99.90;;;;;;5031452;28;20501;-65
2023/05/05 12:31:20;;;;;;;15.10;13.13;;;39.60;99.90;;;;;;5030943;28;20022;-65
2023/05/05 12:33:47;;;;;;;25.73;15.15;;;38.70;99.90;;;;;;5029446;28;20498;-65
2023/05/05 12:36:14;;;;;;;15.52;14.02;;;37.30;99.90;;;;;;5030884;28;20022;-65
2023/05/05 12:38:40;;;;;;;15.10;13.73;;;36.70;99.90;;;;;;5032068;28;20391;-65
2023/05/05 12:41:06;;;;;;;14.02;12.82;;;36.10;99.90;;;;;;5032495;28;20040;-65
2023/05/05 12:43:35;;;;;;;14.88;13.27;;;36.60;99.90;;;;;;5031947;28;20419;-65